sensor_id;sensor_type;location;lat;lon;timestamp;P1;durP1;ratioP1;P2;durP2;ratioP2
21416;SDS011;10869;52.238;10.716;2023-02-01T04:03:40;17.20;;;4.67;;
21416;SDS011;10869;52.238;10.716;2023-02-01T04:06:06;29.47;;;5.33;;
21416;SDS011;10869;52.238;10.716;2023-02-01T04:08:31;29.03;;;4.73;;
21416;SDS011;10869;52.238;10.716;2023-02-01T04:10:57;27.17;;;5.60;;
21416;SDS011;10869;52.238;10.716;2023-02-01T04:13:23;27.53;;;6.03;;
21416;SDS011;10869;52.238;10.716;2023-02-01T04:15:49;33.53;;;5.87;;
21416;SDS011;10869;52.238;10.716;2023-02-01T04:18:14;27.17;;;5.97;;
21416;SDS011;10869;52.238;10.716;2023-02-01T04:20:41;29.90;;;5.27;;
21416;SDS011;10869;52.238;10.716;2023-02-01T04:23:09;26.60;;;5.63;;
21416;SDS011;10869;52.238;10.716;2023-02-01T04:25:36;33.90;;;6.10;;
21416;SDS011;10869;52.238;10.716;2023-02-01T04:28:02;28.43;;;6.27;;
21416;SDS011;10869;52.238;10.716;2023-02-01T04:30:35;25.33;;;6.07;;
21416;SDS011;10869;52.238;10.716;2023-02-01T04:33:01;35.23;;;5.90;;
21416;SDS011;10869;52.238;10.716;2023-02-01T04:35:30;34.33;;;6.17;;
21416;SDS011;10869;52.238;10.716;2023-02-01T04:37:56;23.83;;;4.87;;
21416;SDS011;10869;52.238;10.716;2023-02-01T04:40:22;31.50;;;5.90;;
21416;SDS011;10869;52.238;10.716;2023-02-01T04:42:48;26.33;;;5.83;;
21416;SDS011;10869;52.238;10.716;2023-02-01T04:45:14;23.03;;;5.80;;
21416;SDS011;10869;52.238;10.716;2023-02-01T04:47:40;32.07;;;5.97;;
21416;SDS011;10869;52.238;10.716;2023-02-01T04:50:06;25.70;;;4.97;;
21416;SDS011;10869;52.238;10.716;2023-02-01T04:52:35;25.93;;;5.67;;
21416;SDS011;10869;52.238;10.716;2023-02-01T04:55:01;33.67;;;5.90;;
21416;SDS011;10869;52.238;10.716;2023-02-01T04:57:28;23.90;;;5.57;;
21416;SDS011;10869;52.238;10.716;2023-02-01T04:59:54;31.33;;;7.13;;
21416;SDS011;10869;52.238;10.716;2023-02-01T05:02:22;32.17;;;5.03;;
21416;SDS011;10869;52.238;10.716;2023-02-01T05:04:48;24.50;;;5.73;;
21416;SDS011;10869;52.238;10.716;2023-02-01T05:07:15;20.53;;;4.73;;
21416;SDS011;10869;52.238;10.716;2023-02-01T05:09:41;22.87;;;5.87;;
21416;SDS011;10869;52.238;10.716;2023-02-01T05:12:08;28.70;;;6.00;;
21416;SDS011;10869;52.238;10.716;2023-02-01T05:14:53;23.53;;;5.30;;
21416;SDS011;10869;52.238;10.716;2023-02-01T05:17:21;26.27;;;5.93;;
21416;SDS011;10869;52.238;10.716;2023-02-01T05:19:47;24.93;;;5.83;;
21416;SDS011;10869;52.238;10.716;2023-02-01T05:22:13;25.87;;;6.83;;
21416;SDS011;10869;52.238;10.716;2023-02-01T05:24:38;17.93;;;4.93;;
21416;SDS011;10869;52.238;10.716;2023-02-01T05:27:06;29.37;;;6.60;;
21416;SDS011;10869;52.238;10.716;2023-02-01T05:29:36;33.67;;;7.63;;
21416;SDS011;10869;52.238;10.716;2023-02-01T05:32:04;35.67;;;6.83;;
21416;SDS011;10869;52.238;10.716;2023-02-01T05:34:30;27.60;;;5.90;;
21416;SDS011;10869;52.238;10.716;2023-02-01T05:36:59;28.63;;;6.70;;
21416;SDS011;10869;52.238;10.716;2023-02-01T05:39:25;23.57;;;6.13;;
21416;SDS011;10869;52.238;10.716;2023-02-01T05:41:51;28.33;;;5.97;;
21416;SDS011;10869;52.238;10.716;2023-02-01T05:44:17;43.43;;;11.80;;
21416;SDS011;10869;52.238;10.716;2023-02-01T05:46:42;35.57;;;7.27;;
21416;SDS011;10869;52.238;10.716;2023-02-01T05:49:08;37.63;;;10.73;;
21416;SDS011;10869;52.238;10.716;2023-02-01T05:51:34;34.00;;;8.97;;
21416;SDS011;10869;52.238;10.716;2023-02-01T05:54:00;32.43;;;8.50;;
21416;SDS011;10869;52.238;10.716;2023-02-01T05:56:26;24.13;;;6.77;;
21416;SDS011;10869;52.238;10.716;2023-02-01T05:58:51;28.00;;;7.63;;
21416;SDS011;10869;52.238;10.716;2023-02-01T06:01:17;25.20;;;7.10;;
21416;SDS011;10869;52.238;10.716;2023-02-01T06:03:43;29.83;;;7.27;;
21416;SDS011;10869;52.238;10.716;2023-02-01T06:06:12;30.47;;;6.50;;
21416;SDS011;10869;52.238;10.716;2023-02-01T06:08:38;30.30;;;6.87;;
21416;SDS011;10869;52.238;10.716;2023-02-01T06:11:05;31.10;;;7.83;;
21416;SDS011;10869;52.238;10.716;2023-02-01T06:13:32;26.80;;;7.57;;
21416;SDS011;10869;52.238;10.716;2023-02-01T06:19:22;25.73;;;7.50;;
21416;SDS011;10869;52.238;10.716;2023-02-01T06:21:48;32.03;;;7.03;;
21416;SDS011;10869;52.238;10.716;2023-02-01T06:24:15;32.90;;;7.10;;
21416;SDS011;10869;52.238;10.716;2023-02-01T06:26:41;24.00;;;7.23;;
21416;SDS011;10869;52.238;10.716;2023-02-01T06:29:09;33.70;;;7.60;;
21416;SDS011;10869;52.238;10.716;2023-02-01T06:31:35;30.13;;;8.03;;
21416;SDS011;10869;52.238;10.716;2023-02-01T06:34:01;24.37;;;5.97;;
21416;SDS011;10869;52.238;10.716;2023-02-01T06:36:28;34.83;;;7.60;;
21416;SDS011;10869;52.238;10.716;2023-02-01T06:38:55;25.83;;;6.33;;
21416;SDS011;10869;52.238;10.716;2023-02-01T06:41:22;25.13;;;6.17;;
21416;SDS011;10869;52.238;10.716;2023-02-01T06:43:49;23.10;;;6.10;;
21416;SDS011;10869;52.238;10.716;2023-02-01T06:46:15;27.87;;;6.53;;
21416;SDS011;10869;52.238;10.716;2023-02-01T06:48:44;26.43;;;6.17;;
21416;SDS011;10869;52.238;10.716;2023-02-01T06:51:26;19.73;;;5.67;;
21416;SDS011;10869;52.238;10.716;2023-02-01T06:53:54;27.13;;;5.97;;
21416;SDS011;10869;52.238;10.716;2023-02-01T06:56:20;22.80;;;7.23;;
21416;SDS011;10869;52.238;10.716;2023-02-01T06:58:48;26.20;;;5.77;;
21416;SDS011;10869;52.238;10.716;2023-02-01T07:01:22;26.47;;;5.40;;
21416;SDS011;10869;52.238;10.716;2023-02-01T07:03:49;27.13;;;4.97;;
21416;SDS011;10869;52.238;10.716;2023-02-01T07:06:26;28.27;;;5.80;;
21416;SDS011;10869;52.238;10.716;2023-02-01T07:08:52;28.87;;;6.83;;
21416;SDS011;10869;52.238;10.716;2023-02-01T07:11:20;23.67;;;6.63;;
21416;SDS011;10869;52.238;10.716;2023-02-01T07:13:46;24.80;;;5.90;;
21416;SDS011;10869;52.238;10.716;2023-02-01T07:16:14;31.27;;;6.63;;
21416;SDS011;10869;52.238;10.716;2023-02-01T07:18:41;24.83;;;7.50;;
21416;SDS011;10869;52.238;10.716;2023-02-01T07:21:07;24.50;;;6.93;;
21416;SDS011;10869;52.238;10.716;2023-02-01T07:23:33;22.97;;;5.70;;
21416;SDS011;10869;52.238;10.716;2023-02-01T07:29:27;24.50;;;5.33;;
21416;SDS011;10869;52.238;10.716;2023-02-01T07:31:53;19.37;;;5.47;;
21416;SDS011;10869;52.238;10.716;2023-02-01T07:34:22;22.63;;;5.63;;
21416;SDS011;10869;52.238;10.716;2023-02-01T07:36:48;27.07;;;5.43;;
21416;SDS011;10869;52.238;10.716;2023-02-01T07:39:13;17.23;;;5.07;;
21416;SDS011;10869;52.238;10.716;2023-02-01T07:45:02;20.77;;;5.57;;
21416;SDS011;10869;52.238;10.716;2023-02-01T07:50:57;15.53;;;4.67;;
21416;SDS011;10869;52.238;10.716;2023-02-01T07:53:28;26.20;;;6.47;;
21416;SDS011;10869;52.238;10.716;2023-02-01T07:59:19;18.07;;;4.90;;
21416;SDS011;10869;52.238;10.716;2023-02-01T08:01:45;20.03;;;4.20;;
21416;SDS011;10869;52.238;10.716;2023-02-01T08:07:33;21.53;;;6.13;;
21416;SDS011;10869;52.238;10.716;2023-02-01T08:09:59;25.10;;;6.07;;
21416;SDS011;10869;52.238;10.716;2023-02-01T08:15:47;23.60;;;4.97;;
21416;SDS011;10869;52.238;10.716;2023-02-01T08:21:34;24.90;;;5.20;;
21416;SDS011;10869;52.238;10.716;2023-02-01T08:24:04;24.70;;;5.63;;
21416;SDS011;10869;52.238;10.716;2023-02-01T08:26:30;24.93;;;6.07;;
21416;SDS011;10869;52.238;10.716;2023-02-01T08:28:57;26.57;;;5.43;;
21416;SDS011;10869;52.238;10.716;2023-02-01T08:31:25;26.33;;;5.93;;
21416;SDS011;10869;52.238;10.716;2023-02-01T08:33:53;27.80;;;5.93;;
21416;SDS011;10869;52.238;10.716;2023-02-01T08:36:22;39.70;;;5.93;;
21416;SDS011;10869;52.238;10.716;2023-02-01T08:38:48;31.53;;;6.13;;
21416;SDS011;10869;52.238;10.716;2023-02-01T08:41:16;31.13;;;5.67;;
21416;SDS011;10869;52.238;10.716;2023-02-01T08:47:05;31.63;;;5.93;;
21416;SDS011;10869;52.238;10.716;2023-02-01T08:49:31;29.60;;;7.27;;
21416;SDS011;10869;52.238;10.716;2023-02-01T08:51:57;26.93;;;5.97;;
21416;SDS011;10869;52.238;10.716;2023-02-01T08:54:22;30.53;;;7.67;;
21416;SDS011;10869;52.238;10.716;2023-02-01T08:56:48;31.43;;;6.37;;
21416;SDS011;10869;52.238;10.716;2023-02-01T08:59:14;31.37;;;6.50;;
21416;SDS011;10869;52.238;10.716;2023-02-01T09:01:40;31.10;;;6.07;;
21416;SDS011;10869;52.238;10.716;2023-02-01T09:07:27;35.40;;;6.53;;
21416;SDS011;10869;52.238;10.716;2023-02-01T09:09:53;32.40;;;6.40;;
21416;SDS011;10869;52.238;10.716;2023-02-01T09:12:21;30.60;;;6.67;;
21416;SDS011;10869;52.238;10.716;2023-02-01T09:14:47;30.70;;;7.63;;
21416;SDS011;10869;52.238;10.716;2023-02-01T09:20:36;29.47;;;6.03;;
21416;SDS011;10869;52.238;10.716;2023-02-01T09:23:02;24.97;;;6.40;;
21416;SDS011;10869;52.238;10.716;2023-02-01T09:25:28;37.37;;;6.33;;
21416;SDS011;10869;52.238;10.716;2023-02-01T09:27:53;34.03;;;6.17;;
21416;SDS011;10869;52.238;10.716;2023-02-01T09:30:19;32.47;;;7.17;;
21416;SDS011;10869;52.238;10.716;2023-02-01T09:32:45;31.97;;;8.93;;
21416;SDS011;10869;52.238;10.716;2023-02-01T09:38:33;26.23;;;5.80;;
21416;SDS011;10869;52.238;10.716;2023-02-01T09:44:26;32.33;;;6.20;;
21416;SDS011;10869;52.238;10.716;2023-02-01T09:47:20;27.20;;;6.03;;
21416;SDS011;10869;52.238;10.716;2023-02-01T10:02:08;27.27;;;5.40;;
21416;SDS011;10869;52.238;10.716;2023-02-01T10:08:40;20.73;;;3.90;;
21416;SDS011;10869;52.238;10.716;2023-02-01T10:26:24;18.03;;;3.57;;
21416;SDS011;10869;52.238;10.716;2023-02-01T10:29:01;17.90;;;3.63;;
21416;SDS011;10869;52.238;10.716;2023-02-01T10:31:30;20.97;;;3.80;;
21416;SDS011;10869;52.238;10.716;2023-02-01T10:34:22;21.03;;;4.43;;
21416;SDS011;10869;52.238;10.716;2023-02-01T10:42:57;21.30;;;3.60;;
21416;SDS011;10869;52.238;10.716;2023-02-01T10:48:49;24.03;;;4.30;;
21416;SDS011;10869;52.238;10.716;2023-02-01T10:54:47;21.70;;;4.87;;
21416;SDS011;10869;52.238;10.716;2023-02-01T10:57:23;25.07;;;6.17;;
21416;SDS011;10869;52.238;10.716;2023-02-01T10:59:53;24.50;;;5.57;;
21416;SDS011;10869;52.238;10.716;2023-02-01T11:02:26;22.03;;;4.77;;
21416;SDS011;10869;52.238;10.716;2023-02-01T11:08:20;25.03;;;4.77;;
21416;SDS011;10869;52.238;10.716;2023-02-01T11:10:46;23.10;;;5.43;;
21416;SDS011;10869;52.238;10.716;2023-02-01T11:16:37;22.93;;;5.03;;
21416;SDS011;10869;52.238;10.716;2023-02-01T11:22:27;26.20;;;5.70;;
21416;SDS011;10869;52.238;10.716;2023-02-01T11:28:16;20.60;;;4.90;;
21416;SDS011;10869;52.238;10.716;2023-02-01T11:34:10;15.43;;;3.40;;
21416;SDS011;10869;52.238;10.716;2023-02-01T11:40:22;22.03;;;4.20;;
21416;SDS011;10869;52.238;10.716;2023-02-01T11:45:53;15.60;;;3.57;;
21416;SDS011;10869;52.238;10.716;2023-02-01T11:48:24;23.90;;;4.47;;
21416;SDS011;10869;52.238;10.716;2023-02-01T11:57:12;25.40;;;5.07;;
21416;SDS011;10869;52.238;10.716;2023-02-01T12:05:25;16.57;;;3.53;;
21416;SDS011;10869;52.238;10.716;2023-02-01T12:08:02;16.13;;;3.20;;
21416;SDS011;10869;52.238;10.716;2023-02-01T12:10:37;15.03;;;3.10;;
21416;SDS011;10869;52.238;10.716;2023-02-01T12:29:27;20.10;;;4.70;;
21416;SDS011;10869;52.238;10.716;2023-02-01T12:43:10;17.67;;;4.27;;
21416;SDS011;10869;52.238;10.716;2023-02-01T12:45:59;20.37;;;3.53;;
21416;SDS011;10869;52.238;10.716;2023-02-01T12:51:25;19.83;;;4.40;;
21416;SDS011;10869;52.238;10.716;2023-02-01T12:54:01;21.73;;;4.40;;
21416;SDS011;10869;52.238;10.716;2023-02-01T12:56:46;18.07;;;3.60;;
21416;SDS011;10869;52.238;10.716;2023-02-01T13:08:03;22.70;;;4.20;;
21416;SDS011;10869;52.238;10.716;2023-02-01T13:10:47;16.83;;;3.40;;
21416;SDS011;10869;52.238;10.716;2023-02-01T13:13:24;22.23;;;4.13;;
21416;SDS011;10869;52.238;10.716;2023-02-01T13:21:58;18.10;;;4.60;;
21416;SDS011;10869;52.238;10.716;2023-02-01T13:25:19;17.30;;;4.13;;
21416;SDS011;10869;52.238;10.716;2023-02-01T13:27:41;17.47;;;3.37;;
21416;SDS011;10869;52.238;10.716;2023-02-01T13:35:51;12.80;;;3.07;;
21416;SDS011;10869;52.238;10.716;2023-02-01T13:41:23;19.30;;;5.53;;
21416;SDS011;10869;52.238;10.716;2023-02-01T13:44:02;24.07;;;4.90;;
21416;SDS011;10869;52.238;10.716;2023-02-01T13:46:38;14.63;;;4.30;;
21416;SDS011;10869;52.238;10.716;2023-02-01T13:49:16;13.47;;;3.23;;
21416;SDS011;10869;52.238;10.716;2023-02-01T13:51:46;18.90;;;3.70;;
21416;SDS011;10869;52.238;10.716;2023-02-01T13:54:28;19.50;;;4.93;;
21416;SDS011;10869;52.238;10.716;2023-02-01T13:57:35;15.50;;;4.37;;
21416;SDS011;10869;52.238;10.716;2023-02-01T14:00:25;16.40;;;4.33;;
21416;SDS011;10869;52.238;10.716;2023-02-01T14:09:35;16.33;;;4.40;;
21416;SDS011;10869;52.238;10.716;2023-02-01T14:59:30;4.53;;;1.30;;
21416;SDS011;10869;52.238;10.716;2023-02-01T15:02:15;5.83;;;1.43;;
21416;SDS011;10869;52.238;10.716;2023-02-01T15:04:50;5.90;;;1.67;;
21416;SDS011;10869;52.238;10.716;2023-02-01T15:07:22;8.50;;;1.60;;
21416;SDS011;10869;52.238;10.716;2023-02-01T15:13:23;4.70;;;1.03;;
21416;SDS011;10869;52.238;10.716;2023-02-01T15:19:13;6.67;;;1.60;;
21416;SDS011;10869;52.238;10.716;2023-02-01T15:21:43;8.90;;;1.70;;
21416;SDS011;10869;52.238;10.716;2023-02-01T15:24:12;8.07;;;1.57;;
21416;SDS011;10869;52.238;10.716;2023-02-01T15:26:40;3.87;;;1.50;;
21416;SDS011;10869;52.238;10.716;2023-02-01T15:29:12;5.87;;;1.37;;
21416;SDS011;10869;52.238;10.716;2023-02-01T15:35:01;6.40;;;1.70;;
21416;SDS011;10869;52.238;10.716;2023-02-01T15:40:53;9.83;;;3.37;;
21416;SDS011;10869;52.238;10.716;2023-02-01T15:43:25;9.23;;;2.00;;
21416;SDS011;10869;52.238;10.716;2023-02-01T15:45:55;6.77;;;2.43;;
21416;SDS011;10869;52.238;10.716;2023-02-01T15:48:35;7.73;;;2.57;;
21416;SDS011;10869;52.238;10.716;2023-02-01T15:51:05;8.03;;;3.13;;
21416;SDS011;10869;52.238;10.716;2023-02-01T15:53:36;13.17;;;2.00;;
21416;SDS011;10869;52.238;10.716;2023-02-01T15:59:27;10.57;;;2.27;;
21416;SDS011;10869;52.238;10.716;2023-02-01T16:02:23;14.37;;;2.93;;
21416;SDS011;10869;52.238;10.716;2023-02-01T16:05:27;9.37;;;3.03;;
21416;SDS011;10869;52.238;10.716;2023-02-01T16:08:03;7.73;;;2.23;;
21416;SDS011;10869;52.238;10.716;2023-02-01T16:14:04;8.10;;;1.83;;
21416;SDS011;10869;52.238;10.716;2023-02-01T16:19:52;13.77;;;2.70;;
21416;SDS011;10869;52.238;10.716;2023-02-01T16:22:18;7.00;;;1.80;;
21416;SDS011;10869;52.238;10.716;2023-02-01T16:24:44;10.30;;;3.10;;
21416;SDS011;10869;52.238;10.716;2023-02-01T16:27:13;7.97;;;1.80;;
21416;SDS011;10869;52.238;10.716;2023-02-01T16:29:39;9.30;;;2.37;;
21416;SDS011;10869;52.238;10.716;2023-02-01T16:32:05;10.63;;;3.07;;
21416;SDS011;10869;52.238;10.716;2023-02-01T16:34:31;12.47;;;2.90;;
21416;SDS011;10869;52.238;10.716;2023-02-01T16:37:00;7.63;;;1.77;;
21416;SDS011;10869;52.238;10.716;2023-02-01T16:39:27;9.63;;;2.50;;
21416;SDS011;10869;52.238;10.716;2023-02-01T16:41:54;17.10;;;3.43;;
21416;SDS011;10869;52.238;10.716;2023-02-01T16:44:20;20.00;;;7.80;;
21416;SDS011;10869;52.238;10.716;2023-02-01T16:46:52;16.03;;;3.90;;
21416;SDS011;10869;52.238;10.716;2023-02-01T16:49:19;14.60;;;3.13;;
21416;SDS011;10869;52.238;10.716;2023-02-01T16:51:49;12.07;;;2.80;;
21416;SDS011;10869;52.238;10.716;2023-02-01T16:54:18;12.93;;;2.60;;
21416;SDS011;10869;52.238;10.716;2023-02-01T16:56:47;16.07;;;3.20;;
21416;SDS011;10869;52.238;10.716;2023-02-01T16:59:16;11.23;;;2.90;;
21416;SDS011;10869;52.238;10.716;2023-02-01T17:01:42;16.00;;;3.70;;
21416;SDS011;10869;52.238;10.716;2023-02-01T17:04:08;16.30;;;2.90;;
21416;SDS011;10869;52.238;10.716;2023-02-01T17:06:55;22.13;;;7.43;;
21416;SDS011;10869;52.238;10.716;2023-02-01T17:09:21;16.90;;;4.13;;
21416;SDS011;10869;52.238;10.716;2023-02-01T17:11:48;15.23;;;2.80;;
21416;SDS011;10869;52.238;10.716;2023-02-01T17:17:36;11.97;;;2.57;;
21416;SDS011;10869;52.238;10.716;2023-02-01T17:20:17;14.17;;;3.13;;
21416;SDS011;10869;52.238;10.716;2023-02-01T17:22:46;17.20;;;3.87;;
21416;SDS011;10869;52.238;10.716;2023-02-01T17:25:19;13.70;;;3.13;;
21416;SDS011;10869;52.238;10.716;2023-02-01T17:27:46;15.07;;;2.97;;
21416;SDS011;10869;52.238;10.716;2023-02-01T17:30:16;16.57;;;3.33;;
21416;SDS011;10869;52.238;10.716;2023-02-01T17:32:48;17.97;;;3.27;;
21416;SDS011;10869;52.238;10.716;2023-02-01T17:35:21;15.53;;;3.37;;
21416;SDS011;10869;52.238;10.716;2023-02-01T17:37:48;11.43;;;3.03;;
21416;SDS011;10869;52.238;10.716;2023-02-01T17:40:15;18.33;;;3.57;;
21416;SDS011;10869;52.238;10.716;2023-02-01T17:46:25;23.13;;;4.50;;
21416;SDS011;10869;52.238;10.716;2023-02-01T17:48:54;22.70;;;3.77;;
21416;SDS011;10869;52.238;10.716;2023-02-01T17:51:21;26.13;;;4.10;;
21416;SDS011;10869;52.238;10.716;2023-02-01T17:53:49;17.70;;;4.07;;
21416;SDS011;10869;52.238;10.716;2023-02-01T17:56:19;18.60;;;4.70;;
21416;SDS011;10869;52.238;10.716;2023-02-01T17:58:49;22.97;;;5.27;;
21416;SDS011;10869;52.238;10.716;2023-02-01T18:01:17;19.30;;;4.37;;
21416;SDS011;10869;52.238;10.716;2023-02-01T18:03:47;30.80;;;5.17;;
21416;SDS011;10869;52.238;10.716;2023-02-01T18:06:14;18.07;;;3.77;;
21416;SDS011;10869;52.238;10.716;2023-02-01T18:08:42;24.87;;;5.23;;
21416;SDS011;10869;52.238;10.716;2023-02-01T18:11:13;24.67;;;5.80;;
21416;SDS011;10869;52.238;10.716;2023-02-01T18:13:41;28.37;;;6.07;;
21416;SDS011;10869;52.238;10.716;2023-02-01T18:16:27;19.73;;;5.23;;
21416;SDS011;10869;52.238;10.716;2023-02-01T18:18:54;11.03;;;3.20;;
21416;SDS011;10869;52.238;10.716;2023-02-01T18:21:29;17.83;;;4.77;;
21416;SDS011;10869;52.238;10.716;2023-02-01T18:23:59;13.67;;;2.70;;
21416;SDS011;10869;52.238;10.716;2023-02-01T18:26:25;14.57;;;2.47;;
21416;SDS011;10869;52.238;10.716;2023-02-01T18:28:51;12.40;;;2.60;;
21416;SDS011;10869;52.238;10.716;2023-02-01T18:33:54;14.60;;;3.23;;
21416;SDS011;10869;52.238;10.716;2023-02-01T18:36:21;10.80;;;1.90;;
21416;SDS011;10869;52.238;10.716;2023-02-01T18:38:47;13.40;;;2.87;;
21416;SDS011;10869;52.238;10.716;2023-02-01T18:41:14;12.30;;;2.87;;
21416;SDS011;10869;52.238;10.716;2023-02-01T18:43:42;13.47;;;3.07;;
21416;SDS011;10869;52.238;10.716;2023-02-01T18:46:11;11.23;;;2.27;;
21416;SDS011;10869;52.238;10.716;2023-02-01T18:48:37;10.43;;;2.63;;
21416;SDS011;10869;52.238;10.716;2023-02-01T18:51:03;9.70;;;1.67;;
21416;SDS011;10869;52.238;10.716;2023-02-01T18:53:30;7.47;;;2.10;;
21416;SDS011;10869;52.238;10.716;2023-02-01T18:55:56;6.90;;;2.07;;
21416;SDS011;10869;52.238;10.716;2023-02-01T18:58:23;11.67;;;2.57;;
21416;SDS011;10869;52.238;10.716;2023-02-01T19:00:51;13.37;;;2.80;;
21416;SDS011;10869;52.238;10.716;2023-02-01T19:03:18;12.93;;;2.60;;
21416;SDS011;10869;52.238;10.716;2023-02-01T19:05:47;16.20;;;2.70;;
21416;SDS011;10869;52.238;10.716;2023-02-01T19:08:13;14.37;;;2.80;;
21416;SDS011;10869;52.238;10.716;2023-02-01T19:17:47;21.37;;;5.10;;
21416;SDS011;10869;52.238;10.716;2023-02-01T19:20:14;18.43;;;5.07;;
21416;SDS011;10869;52.238;10.716;2023-02-01T19:22:44;17.60;;;4.63;;
21416;SDS011;10869;52.238;10.716;2023-02-01T19:25:15;20.13;;;5.83;;
21416;SDS011;10869;52.238;10.716;2023-02-01T19:27:49;20.87;;;5.17;;
21416;SDS011;10869;52.238;10.716;2023-02-01T19:30:16;14.10;;;4.63;;
21416;SDS011;10869;52.238;10.716;2023-02-01T19:32:43;25.73;;;4.83;;
21416;SDS011;10869;52.238;10.716;2023-02-01T19:35:09;18.80;;;4.37;;
21416;SDS011;10869;52.238;10.716;2023-02-01T19:41:00;19.30;;;4.83;;
21416;SDS011;10869;52.238;10.716;2023-02-01T19:43:34;18.13;;;5.17;;
21416;SDS011;10869;52.238;10.716;2023-02-01T19:46:03;29.60;;;7.20;;
21416;SDS011;10869;52.238;10.716;2023-02-01T19:48:29;16.07;;;4.63;;
21416;SDS011;10869;52.238;10.716;2023-02-01T19:50:58;22.37;;;6.00;;
21416;SDS011;10869;52.238;10.716;2023-02-01T19:59:32;20.10;;;4.77;;
21416;SDS011;10869;52.238;10.716;2023-02-01T20:05:21;20.93;;;5.77;;
21416;SDS011;10869;52.238;10.716;2023-02-01T20:11:10;31.13;;;5.93;;
21416;SDS011;10869;52.238;10.716;2023-02-01T20:16:58;24.03;;;5.47;;
21416;SDS011;10869;52.238;10.716;2023-02-01T20:19:24;16.33;;;4.47;;
21416;SDS011;10869;52.238;10.716;2023-02-01T20:21:52;26.63;;;5.00;;
21416;SDS011;10869;52.238;10.716;2023-02-01T20:24:24;18.70;;;3.63;;
21416;SDS011;10869;52.238;10.716;2023-02-01T20:30:12;21.77;;;4.87;;
21416;SDS011;10869;52.238;10.716;2023-02-01T20:32:43;29.80;;;5.20;;
21416;SDS011;10869;52.238;10.716;2023-02-01T20:35:10;30.23;;;4.57;;
21416;SDS011;10869;52.238;10.716;2023-02-01T20:37:36;18.00;;;3.90;;
21416;SDS011;10869;52.238;10.716;2023-02-01T20:42:38;18.77;;;4.40;;
21416;SDS011;10869;52.238;10.716;2023-02-01T20:45:07;21.40;;;4.30;;
21416;SDS011;10869;52.238;10.716;2023-02-01T20:47:33;28.40;;;4.67;;
21416;SDS011;10869;52.238;10.716;2023-02-01T20:53:23;25.67;;;4.23;;
21416;SDS011;10869;52.238;10.716;2023-02-01T20:59:13;24.00;;;3.27;;
21416;SDS011;10869;52.238;10.716;2023-02-01T21:05:01;27.70;;;3.80;;
21416;SDS011;10869;52.238;10.716;2023-02-01T21:25:28;28.67;;;5.63;;
21416;SDS011;10869;52.238;10.716;2023-02-01T21:27:54;32.10;;;4.93;;
21416;SDS011;10869;52.238;10.716;2023-02-01T21:30:20;31.90;;;4.03;;
21416;SDS011;10869;52.238;10.716;2023-02-01T21:32:46;22.20;;;3.87;;
21416;SDS011;10869;52.238;10.716;2023-02-01T21:35:14;27.63;;;4.10;;
21416;SDS011;10869;52.238;10.716;2023-02-01T21:37:41;25.23;;;4.67;;
21416;SDS011;10869;52.238;10.716;2023-02-01T21:40:07;29.00;;;4.07;;
21416;SDS011;10869;52.238;10.716;2023-02-01T21:42:33;23.30;;;4.77;;
21416;SDS011;10869;52.238;10.716;2023-02-01T21:44:59;28.90;;;5.13;;
21416;SDS011;10869;52.238;10.716;2023-02-01T21:47:26;24.73;;;4.73;;
21416;SDS011;10869;52.238;10.716;2023-02-01T21:49:52;22.20;;;4.60;;
21416;SDS011;10869;52.238;10.716;2023-02-01T21:52:18;19.13;;;4.13;;
21416;SDS011;10869;52.238;10.716;2023-02-01T21:54:44;29.87;;;4.47;;
21416;SDS011;10869;52.238;10.716;2023-02-01T21:57:10;29.73;;;5.13;;
21416;SDS011;10869;52.238;10.716;2023-02-01T21:59:37;32.57;;;5.60;;
21416;SDS011;10869;52.238;10.716;2023-02-01T22:02:04;27.37;;;4.53;;
21416;SDS011;10869;52.238;10.716;2023-02-01T22:04:31;17.90;;;3.90;;
21416;SDS011;10869;52.238;10.716;2023-02-01T22:06:57;21.20;;;4.07;;
21416;SDS011;10869;52.238;10.716;2023-02-01T22:09:24;24.00;;;4.30;;
21416;SDS011;10869;52.238;10.716;2023-02-01T22:11:51;22.20;;;4.00;;
21416;SDS011;10869;52.238;10.716;2023-02-01T22:14:17;28.23;;;4.03;;
21416;SDS011;10869;52.238;10.716;2023-02-01T22:16:44;23.00;;;3.63;;
21416;SDS011;10869;52.238;10.716;2023-02-01T22:19:10;21.27;;;4.23;;
21416;SDS011;10869;52.238;10.716;2023-02-01T22:21:37;21.97;;;4.10;;
21416;SDS011;10869;52.238;10.716;2023-02-01T22:24:07;26.93;;;5.00;;
21416;SDS011;10869;52.238;10.716;2023-02-01T22:26:34;22.07;;;5.23;;
21416;SDS011;10869;52.238;10.716;2023-02-01T22:29:00;21.63;;;4.23;;
21416;SDS011;10869;52.238;10.716;2023-02-01T22:31:26;22.97;;;3.93;;
21416;SDS011;10869;52.238;10.716;2023-02-01T22:33:52;27.57;;;3.70;;
21416;SDS011;10869;52.238;10.716;2023-02-01T22:36:18;28.30;;;3.67;;
21416;SDS011;10869;52.238;10.716;2023-02-01T22:38:44;25.70;;;4.17;;
21416;SDS011;10869;52.238;10.716;2023-02-01T22:41:12;25.93;;;4.53;;
21416;SDS011;10869;52.238;10.716;2023-02-01T22:43:38;21.80;;;4.17;;
21416;SDS011;10869;52.238;10.716;2023-02-01T22:46:17;24.83;;;3.67;;
21416;SDS011;10869;52.238;10.716;2023-02-01T22:48:47;30.57;;;4.10;;
21416;SDS011;10869;52.238;10.716;2023-02-01T22:51:18;25.73;;;3.83;;
21416;SDS011;10869;52.238;10.716;2023-02-01T22:53:45;21.50;;;3.50;;
21416;SDS011;10869;52.238;10.716;2023-02-01T22:56:12;23.43;;;4.70;;
21416;SDS011;10869;52.238;10.716;2023-02-01T22:58:40;23.23;;;3.97;;
21416;SDS011;10869;52.238;10.716;2023-02-01T23:01:09;22.00;;;3.10;;
21416;SDS011;10869;52.238;10.716;2023-02-01T23:03:37;26.97;;;3.90;;
21416;SDS011;10869;52.238;10.716;2023-02-01T23:06:04;26.57;;;4.80;;
21416;SDS011;10869;52.238;10.716;2023-02-01T23:08:31;21.47;;;4.27;;
21416;SDS011;10869;52.238;10.716;2023-02-01T23:11:00;22.47;;;4.43;;
21416;SDS011;10869;52.238;10.716;2023-02-01T23:13:28;33.73;;;4.43;;
21416;SDS011;10869;52.238;10.716;2023-02-01T23:15:55;27.03;;;4.07;;
21416;SDS011;10869;52.238;10.716;2023-02-01T23:18:21;29.17;;;4.13;;
21416;SDS011;10869;52.238;10.716;2023-02-01T23:20:47;25.33;;;4.30;;
21416;SDS011;10869;52.238;10.716;2023-02-01T23:23:12;27.70;;;4.77;;
21416;SDS011;10869;52.238;10.716;2023-02-01T23:25:38;25.80;;;4.03;;
21416;SDS011;10869;52.238;10.716;2023-02-01T23:28:04;34.67;;;5.00;;
21416;SDS011;10869;52.238;10.716;2023-02-01T23:30:32;30.33;;;5.13;;
21416;SDS011;10869;52.238;10.716;2023-02-01T23:32:58;18.17;;;4.50;;
21416;SDS011;10869;52.238;10.716;2023-02-01T23:35:24;32.30;;;4.73;;
21416;SDS011;10869;52.238;10.716;2023-02-01T23:37:49;26.27;;;4.20;;
21416;SDS011;10869;52.238;10.716;2023-02-01T23:40:15;27.27;;;4.10;;
21416;SDS011;10869;52.238;10.716;2023-02-01T23:42:41;24.67;;;4.37;;
21416;SDS011;10869;52.238;10.716;2023-02-01T23:45:27;22.10;;;3.27;;
21416;SDS011;10869;52.238;10.716;2023-02-01T23:47:52;29.17;;;4.57;;
21416;SDS011;10869;52.238;10.716;2023-02-01T23:50:18;19.33;;;3.53;;
21416;SDS011;10869;52.238;10.716;2023-02-01T23:52:44;22.77;;;3.77;;
21416;SDS011;10869;52.238;10.716;2023-02-01T23:55:10;22.30;;;4.60;;
21416;SDS011;10869;52.238;10.716;2023-02-01T23:57:35;24.97;;;4.77;;
